Time;durP1;ratioP1;P1;durP2;ratioP2;P2;SDS_P1;SDS_P2;PMS_P1;PMS_P2;Temp;Humidity;BMP_temperature;BMP_pressure;BME280_temperature;BME280_humidity;BME280_pressure;Samples;Min_cycle;Max_cycle;Signal;HPM_P1;HPM_P2
2023/03/09 00:00:22;;;;;;;6.68;4.68;;;-0.60;99.90;;;;;;5047313;28;20052;-51
2023/03/09 00:02:48;;;;;;;7.05;5.03;;;-0.60;99.90;;;;;;5048999;28;20025;-54
2023/03/09 00:05:16;;;;;;;6.88;5.00;;;-0.70;99.90;;;;;;5047133;28;20033;-55
2023/03/09 00:07:42;;;;;;;8.38;5.20;;;-0.70;99.90;;;;;;5048724;28;20578;-55
2023/03/09 00:10:10;;;;;;;7.40;4.60;;;-0.60;99.90;;;;;;5048225;28;20027;-55
2023/03/09 00:12:36;;;;;;;7.35;5.72;;;-0.70;99.90;;;;;;5048548;28;20021;-52
2023/03/09 00:15:01;;;;;;;8.32;4.88;;;-0.70;99.90;;;;;;5046207;28;20031;-55
2023/03/09 00:17:27;;;;;;;5.78;4.63;;;-0.70;99.90;;;;;;5048390;28;20028;-52
2023/03/09 00:20:00;;;;;;;7.38;5.45;;;-0.70;99.90;;;;;;5046658;28;20487;-53
2023/03/09 00:22:28;;;;;;;7.05;4.57;;;-0.70;99.90;;;;;;5048487;28;20021;-57
2023/03/09 00:24:55;;;;;;;7.18;4.38;;;-0.70;99.90;;;;;;5044497;28;20028;-55
2023/03/09 00:27:21;;;;;;;7.10;5.05;;;-0.70;99.90;;;;;;5046691;28;20468;-53
2023/03/09 00:29:47;;;;;;;6.20;4.20;;;-0.70;99.90;;;;;;5047159;28;20108;-54
2023/03/09 00:32:12;;;;;;;6.78;4.53;;;-0.70;99.90;;;;;;5046323;28;20059;-56
2023/03/09 00:34:38;;;;;;;5.40;4.45;;;-0.70;99.90;;;;;;5047428;28;20102;-54
2023/03/09 00:37:03;;;;;;;5.90;4.05;;;-0.70;99.90;;;;;;5048357;28;20045;-53
2023/03/09 00:39:29;;;;;;;5.00;4.35;;;-0.70;99.90;;;;;;5048201;28;20115;-54
2023/03/09 00:41:54;;;;;;;6.97;4.50;;;-0.70;99.90;;;;;;5048555;28;20032;-56
2023/03/09 00:44:20;;;;;;;10.82;4.53;;;-0.70;99.90;;;;;;5041219;28;20029;-57
2023/03/09 00:46:45;;;;;;;8.07;4.07;;;-0.70;99.90;;;;;;5041960;28;20025;-53
2023/03/09 00:49:13;;;;;;;7.90;4.55;;;-0.80;99.90;;;;;;5045785;28;20052;-53
2023/03/09 00:51:39;;;;;;;7.45;4.43;;;-0.80;99.90;;;;;;5042611;28;20024;-53
2023/03/09 00:54:05;;;;;;;7.93;4.93;;;-0.80;99.90;;;;;;5045270;28;20029;-56
2023/03/09 00:56:31;;;;;;;9.77;5.28;;;-0.80;99.90;;;;;;5050180;28;20514;-54
2023/03/09 00:58:58;;;;;;;6.78;4.13;;;-0.80;99.90;;;;;;5051236;28;20025;-55
2023/03/09 01:01:24;;;;;;;10.70;4.60;;;-0.90;99.90;;;;;;5046229;28;20033;-54
2023/03/09 01:03:51;;;;;;;5.60;4.55;;;-0.90;99.90;;;;;;5048308;28;20108;-55
2023/03/09 01:06:16;;;;;;;7.70;5.32;;;-0.90;99.90;;;;;;5051985;28;20029;-52
2023/03/09 01:08:43;;;;;;;8.32;5.75;;;-1.00;99.90;;;;;;5051726;28;20036;-57
2023/03/09 01:11:12;;;;;;;6.82;5.10;;;-1.00;99.90;;;;;;5042579;28;20437;-53
2023/03/09 01:13:38;;;;;;;10.20;6.18;;;-1.10;99.90;;;;;;5044201;28;20033;-54
2023/03/09 01:16:04;;;;;;;12.18;5.47;;;-1.00;99.90;;;;;;5051076;28;20483;-52
2023/03/09 01:18:29;;;;;;;8.30;6.05;;;-1.10;99.90;;;;;;5053957;28;20108;-54
2023/03/09 01:20:55;;;;;;;9.07;5.50;;;-1.00;99.90;;;;;;5051501;28;20570;-51
2023/03/09 01:23:20;;;;;;;7.63;5.15;;;-1.10;99.90;;;;;;5053297;28;20041;-52
2023/03/09 01:25:46;;;;;;;6.50;4.95;;;-1.10;99.90;;;;;;5051409;28;20021;-52
2023/03/09 01:28:11;;;;;;;10.55;5.50;;;-1.10;99.90;;;;;;5051637;28;20479;-51
2023/03/09 01:30:38;;;;;;;7.88;5.45;;;-1.10;99.90;;;;;;5053474;28;20033;-56
2023/03/09 01:33:03;;;;;;;8.10;6.10;;;-1.10;99.90;;;;;;5051525;28;20017;-52
2023/03/09 01:35:29;;;;;;;8.38;5.63;;;-1.10;99.90;;;;;;5056215;28;20021;-57
2023/03/09 01:37:54;;;;;;;9.85;6.30;;;-1.10;99.90;;;;;;5047010;28;20021;-57
2023/03/09 01:40:23;;;;;;;6.60;5.57;;;-1.10;99.90;;;;;;5051165;28;20048;-56
2023/03/09 01:42:55;;;;;;;8.57;5.72;;;-1.20;99.90;;;;;;5051199;28;20103;-53
2023/03/09 01:45:21;;;;;;;7.78;5.88;;;-1.20;99.90;;;;;;5051410;28;20036;-53
2023/03/09 01:47:47;;;;;;;11.10;5.70;;;-1.20;99.90;;;;;;5051054;28;20028;-57
2023/03/09 01:50:16;;;;;;;8.18;5.65;;;-1.20;99.90;;;;;;5051081;28;20468;-56
2023/03/09 01:52:44;;;;;;;7.28;5.60;;;-1.20;99.90;;;;;;5051067;28;20021;-54
2023/03/09 01:55:13;;;;;;;8.70;5.25;;;-1.20;99.90;;;;;;5049006;28;20029;-56
2023/03/09 01:57:53;;;;;;;8.80;5.63;;;-1.30;99.90;;;;;;5046444;28;20086;-59
2023/03/09 02:00:24;;;;;;;8.07;5.18;;;-1.30;99.90;;;;;;5042521;28;20549;-56
2023/03/09 02:02:57;;;;;;;7.15;5.40;;;-1.30;99.90;;;;;;5045231;28;20392;-57
2023/03/09 02:05:46;;;;;;;8.90;5.78;;;-1.30;99.90;;;;;;5050652;28;20103;-53
2023/03/09 02:08:12;;;;;;;6.75;5.18;;;-1.30;99.90;;;;;;5048043;28;20444;-54
2023/03/09 02:10:47;;;;;;;7.43;6.00;;;-1.30;99.90;;;;;;5049241;28;20529;-55
2023/03/09 02:13:17;;;;;;;5.75;5.07;;;-1.30;99.90;;;;;;5050461;28;20044;-57
2023/03/09 02:15:42;;;;;;;8.10;5.50;;;-1.30;99.90;;;;;;5048663;28;20510;-57
2023/03/09 02:18:08;;;;;;;6.15;5.15;;;-1.40;99.90;;;;;;5048844;28;20037;-57
2023/03/09 02:20:49;;;;;;;8.85;5.88;;;-1.40;99.90;;;;;;5054247;28;20496;-54
2023/03/09 02:23:48;;;;;;;7.80;5.95;;;-1.40;99.90;;;;;;5050527;28;20093;-53
2023/03/09 02:26:25;;;;;;;7.43;5.47;;;-1.40;99.90;;;;;;5049606;28;20033;-56
2023/03/09 02:28:51;;;;;;;9.70;5.47;;;-1.40;99.90;;;;;;5043020;28;20017;-53
2023/03/09 02:31:19;;;;;;;8.57;5.75;;;-1.40;99.90;;;;;;5050373;28;20027;-57
2023/03/09 02:33:44;;;;;;;6.80;5.63;;;-1.40;99.90;;;;;;5050324;28;20041;-55
2023/03/09 02:36:10;;;;;;;7.68;5.30;;;-1.30;99.90;;;;;;5050017;28;20025;-55
2023/03/09 02:38:36;;;;;;;6.03;4.47;;;-1.40;99.90;;;;;;5050159;28;20446;-55
2023/03/09 02:41:03;;;;;;;8.13;5.53;;;-1.40;99.90;;;;;;5047916;28;20029;-58
2023/03/09 02:43:36;;;;;;;8.13;5.25;;;-1.40;99.90;;;;;;5049754;28;20036;-55
2023/03/09 02:46:02;;;;;;;9.48;5.70;;;-1.40;99.90;;;;;;5049431;28;20108;-54
2023/03/09 02:48:28;;;;;;;8.43;5.40;;;-1.40;99.90;;;;;;5048268;28;20117;-56
2023/03/09 02:50:54;;;;;;;8.82;4.97;;;-1.40;99.90;;;;;;5047246;28;20021;-56
2023/03/09 02:53:19;;;;;;;9.43;5.72;;;-1.40;99.90;;;;;;5043928;28;20022;-58
2023/03/09 02:55:45;;;;;;;9.05;5.63;;;-1.40;99.90;;;;;;5043424;28;20037;-58
2023/03/09 02:58:10;;;;;;;7.95;5.22;;;-1.40;99.90;;;;;;5051640;28;20178;-58
2023/03/09 03:00:36;;;;;;;7.63;5.10;;;-1.40;99.90;;;;;;5049678;28;20069;-58
2023/03/09 03:03:02;;;;;;;9.52;5.63;;;-1.40;99.90;;;;;;5049513;28;20029;-57
2023/03/09 03:05:27;;;;;;;10.00;6.15;;;-1.40;99.90;;;;;;5049231;28;20036;-55
2023/03/09 03:07:53;;;;;;;8.13;5.63;;;-1.30;99.90;;;;;;5049388;28;20033;-57
2023/03/09 03:10:18;;;;;;;7.20;5.50;;;-1.40;99.90;;;;;;5041846;28;20124;-58
2023/03/09 03:12:44;;;;;;;8.40;5.90;;;-1.40;99.90;;;;;;5049149;28;21262;-55
2023/03/09 03:15:10;;;;;;;7.78;5.65;;;-1.40;99.90;;;;;;5049078;28;20029;-58
2023/03/09 03:17:36;;;;;;;5.93;5.32;;;-1.40;99.90;;;;;;5049083;28;20029;-58
2023/03/09 03:20:02;;;;;;;8.30;5.75;;;-1.40;99.90;;;;;;5048401;28;20029;-58
2023/03/09 03:22:28;;;;;;;9.85;6.05;;;-1.40;99.90;;;;;;5049376;28;20036;-57
2023/03/09 03:24:54;;;;;;;8.38;5.57;;;-1.40;99.90;;;;;;5048766;28;20028;-61
2023/03/09 03:27:19;;;;;;;9.00;5.65;;;-1.30;99.90;;;;;;5047532;28;20484;-55
2023/03/09 03:29:45;;;;;;;11.00;6.13;;;-1.30;99.90;;;;;;5048345;28;20091;-58
2023/03/09 03:32:11;;;;;;;6.75;5.03;;;-1.30;99.90;;;;;;5049274;28;20017;-58
2023/03/09 03:34:37;;;;;;;8.80;6.07;;;-1.30;99.90;;;;;;5047918;28;20036;-58
2023/03/09 03:37:03;;;;;;;9.63;5.53;;;-1.30;99.90;;;;;;5049098;28;20020;-56
2023/03/09 03:39:28;;;;;;;7.68;5.63;;;-1.30;99.90;;;;;;5040521;28;20025;-58
2023/03/09 03:41:54;;;;;;;8.88;5.75;;;-1.30;99.90;;;;;;5041738;28;20562;-58
2023/03/09 03:44:19;;;;;;;9.27;5.90;;;-1.30;99.90;;;;;;5048772;28;20434;-58
2023/03/09 03:46:45;;;;;;;9.27;5.75;;;-1.30;99.90;;;;;;5046155;28;20036;-56
2023/03/09 03:49:10;;;;;;;9.95;5.47;;;-1.30;99.90;;;;;;5048321;28;20138;-56
2023/03/09 03:51:36;;;;;;;8.68;5.68;;;-1.30;99.90;;;;;;5040869;28;20033;-58
2023/03/09 03:54:01;;;;;;;9.57;5.55;;;-1.30;99.90;;;;;;5043861;28;20515;-57
2023/03/09 03:56:27;;;;;;;9.05;5.75;;;-1.30;99.90;;;;;;5040929;28;20326;-58
2023/03/09 03:58:53;;;;;;;9.20;6.22;;;-1.30;99.90;;;;;;5047418;28;20067;-57
2023/03/09 04:01:18;;;;;;;6.75;4.97;;;-1.30;99.90;;;;;;5049316;28;20025;-59
2023/03/09 04:03:44;;;;;;;13.50;5.95;;;-1.30;99.90;;;;;;5048723;28;20043;-57
2023/03/09 04:06:09;;;;;;;9.48;5.88;;;-1.20;99.90;;;;;;5042277;28;20028;-55
2023/03/09 04:08:35;;;;;;;7.78;5.53;;;-1.20;99.90;;;;;;5044589;28;20029;-57
2023/03/09 04:11:08;;;;;;;10.48;5.43;;;-1.20;99.90;;;;;;5040744;28;20484;-59
2023/03/09 04:13:34;;;;;;;9.18;6.15;;;-1.20;99.90;;;;;;5049199;28;20066;-57
2023/03/09 04:16:00;;;;;;;7.25;5.70;;;-1.20;99.90;;;;;;5049796;28;20025;-54
2023/03/09 04:18:25;;;;;;;6.72;5.32;;;-1.20;99.90;;;;;;5048668;28;20415;-54
2023/03/09 04:20:51;;;;;;;14.02;6.05;;;-1.20;99.90;;;;;;5044719;28;20025;-58
2023/03/09 04:23:16;;;;;;;10.38;5.97;;;-1.30;99.90;;;;;;5048640;28;20024;-59
2023/03/09 04:25:42;;;;;;;9.00;6.03;;;-1.20;99.90;;;;;;5042530;28;20036;-57
2023/03/09 04:28:07;;;;;;;8.57;6.10;;;-1.20;99.90;;;;;;5048747;28;20056;-58
2023/03/09 04:30:33;;;;;;;7.50;5.78;;;-1.20;99.90;;;;;;5041345;28;20032;-58
2023/03/09 04:32:58;;;;;;;9.73;5.70;;;-1.20;99.90;;;;;;5050673;28;20475;-55
2023/03/09 04:35:24;;;;;;;9.02;6.50;;;-1.20;99.90;;;;;;5051195;28;20495;-58
2023/03/09 04:37:51;;;;;;;8.80;5.85;;;-1.20;99.90;;;;;;5047584;28;20036;-57
2023/03/09 04:40:17;;;;;;;8.35;5.63;;;-1.20;99.90;;;;;;5052296;28;20475;-57
2023/03/09 04:42:43;;;;;;;9.30;6.13;;;-1.20;99.90;;;;;;5050295;28;20105;-58
2023/03/09 04:45:09;;;;;;;12.05;6.40;;;-1.20;99.90;;;;;;5051945;28;20027;-57
2023/03/09 04:47:34;;;;;;;9.10;5.72;;;-1.20;99.90;;;;;;5047218;28;20072;-57
2023/03/09 04:50:00;;;;;;;10.55;5.97;;;-1.10;99.90;;;;;;5051391;28;20091;-55
2023/03/09 04:52:25;;;;;;;11.57;6.85;;;-1.10;99.90;;;;;;5051359;28;20023;-57
2023/03/09 04:54:54;;;;;;;10.68;5.97;;;-1.10;99.90;;;;;;5048273;28;20434;-57
2023/03/09 04:57:19;;;;;;;9.57;5.78;;;-1.20;99.90;;;;;;5051099;28;20016;-58
2023/03/09 04:59:45;;;;;;;9.80;5.78;;;-1.20;99.90;;;;;;5049207;28;20032;-58
2023/03/09 05:02:10;;;;;;;7.25;5.32;;;-1.10;99.90;;;;;;5048930;28;20471;-56
2023/03/09 05:04:36;;;;;;;11.07;6.57;;;-1.10;99.90;;;;;;5050754;28;20087;-58
2023/03/09 05:07:02;;;;;;;11.18;6.32;;;-1.10;99.90;;;;;;5050355;28;20021;-57
2023/03/09 05:09:27;;;;;;;12.00;6.85;;;-1.20;99.90;;;;;;5049139;28;20051;-58
2023/03/09 05:11:53;;;;;;;7.60;5.90;;;-1.20;99.90;;;;;;5040491;28;20026;-58
2023/03/09 05:14:19;;;;;;;9.63;5.88;;;-1.20;99.90;;;;;;5050370;28;20664;-55
2023/03/09 05:16:45;;;;;;;10.15;6.32;;;-1.20;99.90;;;;;;5051428;28;20070;-57
2023/03/09 05:19:11;;;;;;;8.40;6.00;;;-1.20;99.90;;;;;;5051009;28;20028;-56
2023/03/09 05:21:37;;;;;;;11.73;6.78;;;-1.20;99.90;;;;;;5048426;28;20055;-58
2023/03/09 05:24:04;;;;;;;9.70;5.55;;;-1.20;99.90;;;;;;5051550;28;20078;-55
2023/03/09 05:26:29;;;;;;;8.10;6.03;;;-1.20;99.90;;;;;;5048215;28;20032;-58
2023/03/09 05:28:55;;;;;;;9.98;6.55;;;-1.20;99.90;;;;;;5044069;28;20111;-55
2023/03/09 05:31:21;;;;;;;9.13;6.78;;;-1.20;99.90;;;;;;5048876;28;20399;-54
2023/03/09 05:33:47;;;;;;;9.57;6.47;;;-1.20;99.90;;;;;;5051488;28;20095;-55
2023/03/09 05:36:21;;;;;;;12.45;6.80;;;-1.20;99.90;;;;;;5051177;28;20032;-54
2023/03/09 05:38:48;;;;;;;8.63;5.88;;;-1.30;99.90;;;;;;5050841;28;20479;-54
2023/03/09 05:41:13;;;;;;;9.32;5.93;;;-1.30;99.90;;;;;;5050621;28;20075;-55
2023/03/09 05:43:41;;;;;;;7.55;6.38;;;-1.30;99.90;;;;;;5039815;28;20057;-57
2023/03/09 05:46:09;;;;;;;8.05;5.90;;;-1.30;99.90;;;;;;5040012;28;20029;-56
2023/03/09 05:48:35;;;;;;;9.70;6.53;;;-1.30;99.90;;;;;;5050748;28;20480;-56
2023/03/09 05:51:01;;;;;;;10.75;6.63;;;-1.30;99.90;;;;;;5050364;28;20028;-57
2023/03/09 05:53:27;;;;;;;7.18;5.65;;;-1.30;99.90;;;;;;5050615;28;20103;-56
2023/03/09 05:55:52;;;;;;;11.32;6.78;;;-1.30;99.90;;;;;;5050827;28;20017;-54
2023/03/09 05:58:18;;;;;;;11.07;7.05;;;-1.30;99.90;;;;;;5043674;28;20029;-58
2023/03/09 06:00:44;;;;;;;12.38;6.88;;;-1.30;99.90;;;;;;5043851;28;20064;-57
2023/03/09 06:03:10;;;;;;;12.27;7.15;;;-1.30;99.90;;;;;;5050884;28;20396;-55
2023/03/09 06:05:35;;;;;;;10.38;6.88;;;-1.30;99.90;;;;;;5050543;28;20033;-58
2023/03/09 06:08:01;;;;;;;11.02;7.70;;;-1.30;99.90;;;;;;5050479;28;20062;-58
2023/03/09 06:10:27;;;;;;;10.50;6.75;;;-1.30;99.90;;;;;;5042617;28;20072;-56
2023/03/09 06:12:52;;;;;;;9.00;6.78;;;-1.20;99.90;;;;;;5050821;28;20450;-58
2023/03/09 06:15:18;;;;;;;10.73;7.30;;;-1.30;99.90;;;;;;5050414;28;20450;-59
2023/03/09 06:17:43;;;;;;;11.75;7.45;;;-1.30;99.90;;;;;;5044394;28;20021;-54
2023/03/09 06:20:09;;;;;;;11.68;7.53;;;-1.30;99.90;;;;;;5050074;28;20025;-58
2023/03/09 06:22:35;;;;;;;10.27;7.57;;;-1.30;99.90;;;;;;5050234;28;20036;-54
2023/03/09 06:25:01;;;;;;;12.38;7.50;;;-1.30;99.90;;;;;;5052465;28;20025;-54
2023/03/09 06:27:26;;;;;;;10.95;7.47;;;-1.30;99.90;;;;;;5053872;28;20025;-55
2023/03/09 06:29:54;;;;;;;9.52;7.07;;;-1.20;99.90;;;;;;5049938;28;20017;-57
2023/03/09 06:32:20;;;;;;;12.13;6.85;;;-1.20;99.90;;;;;;5041518;28;20044;-55
2023/03/09 06:34:46;;;;;;;10.05;6.53;;;-1.30;99.90;;;;;;5049477;28;20020;-57
2023/03/09 06:37:11;;;;;;;12.30;7.45;;;-1.20;99.90;;;;;;5051118;28;20057;-54
2023/03/09 06:39:37;;;;;;;12.98;7.85;;;-1.20;99.90;;;;;;5047641;28;20037;-55
2023/03/09 06:42:03;;;;;;;11.02;6.90;;;-1.10;99.90;;;;;;5044073;28;20021;-54
2023/03/09 06:44:28;;;;;;;12.25;6.95;;;-1.10;99.90;;;;;;5047488;28;20021;-56
2023/03/09 06:46:54;;;;;;;13.20;7.75;;;-1.10;99.90;;;;;;5049499;28;20043;-56
2023/03/09 06:49:19;;;;;;;10.43;7.53;;;-1.10;99.90;;;;;;5049123;28;20033;-58
2023/03/09 06:51:45;;;;;;;15.18;7.22;;;-1.10;99.90;;;;;;5043848;28;20040;-56
2023/03/09 06:54:10;;;;;;;14.07;7.88;;;-1.00;99.90;;;;;;5049191;28;20048;-58
2023/03/09 06:56:36;;;;;;;11.02;8.00;;;-1.00;99.90;;;;;;5049413;28;20029;-57
2023/03/09 06:59:02;;;;;;;10.90;7.55;;;-1.00;99.90;;;;;;5048791;28;20025;-57
2023/03/09 07:01:27;;;;;;;10.48;6.97;;;-0.90;99.90;;;;;;5041147;28;20403;-57
2023/03/09 07:03:53;;;;;;;9.57;6.75;;;-0.90;99.90;;;;;;5048340;28;20036;-57
2023/03/09 07:06:18;;;;;;;12.00;7.88;;;-0.80;99.90;;;;;;5049298;28;20479;-56
2023/03/09 07:08:44;;;;;;;11.68;7.60;;;-0.80;99.90;;;;;;5049042;28;20426;-58
2023/03/09 07:11:10;;;;;;;16.15;8.15;;;-0.80;99.90;;;;;;5041582;28;20032;-54
2023/03/09 07:13:35;;;;;;;12.57;7.70;;;-0.80;99.90;;;;;;5047748;28;20108;-58
2023/03/09 07:16:02;;;;;;;10.82;6.70;;;-0.80;99.90;;;;;;5048068;28;20071;-57
2023/03/09 07:18:28;;;;;;;11.45;7.88;;;-0.70;99.90;;;;;;5040910;28;20033;-57
2023/03/09 07:20:53;;;;;;;11.27;6.85;;;-0.60;99.90;;;;;;5053072;28;20040;-58
2023/03/09 07:23:19;;;;;;;13.05;8.15;;;-0.60;99.90;;;;;;5048973;28;20037;-55
2023/03/09 07:25:45;;;;;;;14.55;7.32;;;-0.60;99.90;;;;;;5047950;28;20064;-58
2023/03/09 07:28:10;;;;;;;13.07;7.93;;;-0.50;99.90;;;;;;5048451;28;20443;-56
2023/03/09 07:30:37;;;;;;;10.60;7.20;;;-0.50;99.90;;;;;;5049179;28;20150;-54
2023/03/09 07:33:03;;;;;;;10.35;7.22;;;-0.40;99.90;;;;;;5048993;28;20028;-58
2023/03/09 07:35:29;;;;;;;11.65;7.18;;;-0.40;99.90;;;;;;5042442;28;20036;-55
2023/03/09 07:37:55;;;;;;;10.48;6.45;;;-0.30;99.90;;;;;;5049004;28;20025;-56
2023/03/09 07:40:20;;;;;;;10.30;7.75;;;-0.30;99.90;;;;;;5048309;28;20029;-55
2023/03/09 07:42:52;;;;;;;11.80;7.60;;;-0.20;99.90;;;;;;5048810;28;20471;-58
2023/03/09 07:45:18;;;;;;;15.10;8.05;;;-0.20;99.90;;;;;;5040963;28;20104;-57
2023/03/09 07:47:43;;;;;;;14.23;8.68;;;-0.20;99.90;;;;;;5049202;28;20116;-55
2023/03/09 07:50:09;;;;;;;9.32;7.15;;;-0.20;99.90;;;;;;5048213;28;20057;-56
2023/03/09 07:52:35;;;;;;;11.02;7.78;;;-0.10;99.90;;;;;;5046825;28;20112;-57
2023/03/09 07:55:01;;;;;;;13.82;7.38;;;-0.10;99.90;;;;;;5048140;28;20025;-55
2023/03/09 07:57:31;;;;;;;13.32;7.10;;;0.00;99.90;;;;;;5048655;28;20032;-56
2023/03/09 07:59:56;;;;;;;10.35;6.55;;;0.00;99.90;;;;;;5048997;28;20025;-55
2023/03/09 08:02:22;;;;;;;9.85;7.80;;;0.10;99.90;;;;;;5049716;28;20036;-57
2023/03/09 08:04:48;;;;;;;10.90;6.90;;;0.20;99.90;;;;;;5049983;28;20029;-56
2023/03/09 08:07:14;;;;;;;9.65;7.18;;;0.20;99.90;;;;;;5052626;28;20056;-57
2023/03/09 08:09:40;;;;;;;13.57;8.43;;;0.30;99.90;;;;;;5052818;28;20040;-57
2023/03/09 08:12:05;;;;;;;10.43;6.90;;;0.30;99.90;;;;;;5051796;28;20634;-57
2023/03/09 08:14:31;;;;;;;11.43;7.03;;;0.40;99.90;;;;;;5052199;28;20251;-57
2023/03/09 08:16:57;;;;;;;11.88;8.23;;;0.50;99.90;;;;;;5053016;28;20079;-54
2023/03/09 08:19:23;;;;;;;11.82;7.78;;;0.50;99.90;;;;;;5052319;28;20483;-58
2023/03/09 08:21:49;;;;;;;10.75;7.53;;;0.70;99.90;;;;;;5050982;28;20059;-54
2023/03/09 08:24:15;;;;;;;10.05;6.82;;;0.80;99.90;;;;;;5052212;28;20036;-56
2023/03/09 08:26:42;;;;;;;10.55;7.30;;;0.80;99.90;;;;;;5050973;28;20025;-56
2023/03/09 08:29:07;;;;;;;13.45;7.82;;;0.90;99.90;;;;;;5051865;28;20033;-57
2023/03/09 08:31:34;;;;;;;13.77;8.52;;;1.00;99.90;;;;;;5052392;28;20103;-58
2023/03/09 08:34:00;;;;;;;11.20;6.88;;;1.10;99.90;;;;;;5052306;28;20086;-58
2023/03/09 08:36:26;;;;;;;8.93;6.85;;;1.10;99.90;;;;;;5051592;28;20155;-58
2023/03/09 08:38:52;;;;;;;9.70;7.55;;;1.20;99.90;;;;;;5051199;28;20100;-58
2023/03/09 08:41:17;;;;;;;12.00;7.47;;;1.40;99.90;;;;;;5052177;28;20040;-58
2023/03/09 08:43:44;;;;;;;10.00;7.50;;;1.40;99.90;;;;;;5051984;28;20597;-58
2023/03/09 08:46:09;;;;;;;11.20;7.60;;;1.50;99.90;;;;;;5051876;28;20384;-58
2023/03/09 08:48:35;;;;;;;10.95;7.03;;;1.60;99.90;;;;;;5051606;28;20052;-58
2023/03/09 08:51:04;;;;;;;11.07;7.10;;;1.80;99.90;;;;;;5051523;28;20093;-56
2023/03/09 08:53:30;;;;;;;8.90;6.38;;;1.90;99.90;;;;;;5051499;28;20032;-57
2023/03/09 08:55:56;;;;;;;9.85;6.95;;;2.20;99.90;;;;;;5051995;28;20463;-58
2023/03/09 08:58:21;;;;;;;11.68;7.85;;;2.40;99.90;;;;;;5048441;28;20039;-59
2023/03/09 09:00:47;;;;;;;9.65;6.45;;;2.50;99.90;;;;;;5051611;28;20032;-59
2023/03/09 09:03:13;;;;;;;8.68;5.72;;;2.70;99.90;;;;;;5051678;28;20035;-58
2023/03/09 09:05:39;;;;;;;7.97;6.28;;;2.80;99.90;;;;;;5050015;28;20115;-58
2023/03/09 09:08:05;;;;;;;8.82;6.00;;;2.90;99.90;;;;;;5051108;28;20091;-58
2023/03/09 09:10:30;;;;;;;8.68;5.82;;;3.00;99.90;;;;;;5051471;28;20029;-58
2023/03/09 09:12:56;;;;;;;8.15;5.70;;;3.10;99.90;;;;;;5051288;28;20021;-54
2023/03/09 09:15:22;;;;;;;9.27;5.85;;;3.00;99.90;;;;;;5048665;28;20392;-59
2023/03/09 09:17:47;;;;;;;8.27;5.90;;;3.00;99.90;;;;;;5050406;28;20079;-57
2023/03/09 09:20:13;;;;;;;12.13;7.00;;;3.00;99.90;;;;;;5047488;28;20056;-58
2023/03/09 09:22:42;;;;;;;9.90;6.13;;;3.00;99.90;;;;;;5050842;28;20467;-56
2023/03/09 09:25:09;;;;;;;9.15;6.00;;;3.00;99.90;;;;;;5051552;28;20036;-59
2023/03/09 09:27:35;;;;;;;11.80;6.45;;;3.00;99.90;;;;;;5046704;28;20029;-59
2023/03/09 09:30:02;;;;;;;7.82;5.45;;;3.00;99.90;;;;;;5049440;28;20025;-57
2023/03/09 09:32:27;;;;;;;10.13;6.88;;;3.00;99.90;;;;;;5048017;28;20399;-57
2023/03/09 09:34:53;;;;;;;9.93;5.53;;;3.00;99.90;;;;;;5049826;28;20014;-58
2023/03/09 09:37:19;;;;;;;8.07;5.45;;;3.00;99.90;;;;;;5050503;28;20032;-59
2023/03/09 09:39:45;;;;;;;9.60;5.18;;;3.00;99.90;;;;;;5050481;28;20021;-58
2023/03/09 09:42:43;;;;;;;6.88;4.97;;;3.00;99.90;;;;;;5046619;28;20476;-56
2023/03/09 09:45:32;;;;;;;6.70;4.93;;;3.10;99.90;;;;;;5043864;28;20029;-59
2023/03/09 09:48:02;;;;;;;7.30;4.25;;;3.10;99.90;;;;;;5046529;28;20071;-61
2023/03/09 09:51:05;;;;;;;6.95;4.57;;;3.20;99.90;;;;;;5049886;28;20510;-58
2023/03/09 09:53:47;;;;;;;7.00;4.40;;;3.30;99.90;;;;;;5048180;28;20025;-59
2023/03/09 09:56:20;;;;;;;5.78;4.47;;;3.30;99.90;;;;;;5050482;28;20173;-57
2023/03/09 09:58:47;;;;;;;9.13;5.00;;;3.30;99.90;;;;;;5050452;28;21072;-55
2023/03/09 10:01:29;;;;;;;7.85;5.30;;;3.40;99.90;;;;;;5049949;28;20032;-57
2023/03/09 10:04:02;;;;;;;7.45;4.63;;;3.50;99.90;;;;;;5047846;28;20043;-58
2023/03/09 10:06:28;;;;;;;7.03;4.60;;;3.70;99.90;;;;;;5050076;28;20101;-58
2023/03/09 10:09:14;;;;;;;8.27;4.72;;;3.70;99.90;;;;;;5050288;28;20025;-60
2023/03/09 10:11:42;;;;;;;7.32;5.30;;;3.80;99.90;;;;;;5050071;28;20021;-58
2023/03/09 10:14:35;;;;;;;6.60;4.38;;;3.80;99.90;;;;;;5048094;28;20029;-59
2023/03/09 10:17:28;;;;;;;6.85;4.88;;;4.00;99.90;;;;;;5048138;28;20029;-60
2023/03/09 10:19:57;;;;;;;6.97;4.82;;;4.00;99.90;;;;;;5034697;28;20040;-59
2023/03/09 10:22:25;;;;;;;6.15;4.63;;;4.00;99.90;;;;;;5048642;28;20036;-58
2023/03/09 10:24:53;;;;;;;8.88;5.00;;;4.00;99.90;;;;;;5041796;28;20111;-55
2023/03/09 10:27:37;;;;;;;6.88;4.70;;;4.00;99.90;;;;;;5048130;28;20516;-58
2023/03/09 10:30:09;;;;;;;5.85;4.40;;;4.00;99.90;;;;;;5042678;28;20107;-59
2023/03/09 10:32:42;;;;;;;7.60;4.97;;;4.00;99.90;;;;;;5047647;28;20021;-59
2023/03/09 10:35:35;;;;;;;9.40;5.30;;;3.90;99.90;;;;;;5049656;28;20033;-55
2023/03/09 10:38:00;;;;;;;8.88;5.63;;;3.90;99.90;;;;;;5048056;28;20031;-60
2023/03/09 10:40:34;;;;;;;6.00;5.10;;;3.80;99.90;;;;;;5048316;28;20029;-61
2023/03/09 10:43:00;;;;;;;6.82;4.43;;;3.80;99.90;;;;;;5046989;28;20107;-59
2023/03/09 10:45:32;;;;;;;7.70;5.22;;;3.80;99.90;;;;;;5049757;28;20039;-62
2023/03/09 10:48:06;;;;;;;7.10;5.82;;;3.80;99.90;;;;;;5049536;28;20067;-59
2023/03/09 10:50:36;;;;;;;8.57;5.03;;;3.80;99.90;;;;;;5049376;28;20036;-60
2023/03/09 10:53:21;;;;;;;10.93;4.90;;;3.80;99.90;;;;;;5047962;28;20047;-60
2023/03/09 10:55:46;;;;;;;5.82;5.03;;;3.90;99.90;;;;;;5048934;28;20025;-60
2023/03/09 10:58:17;;;;;;;6.35;4.60;;;3.90;99.90;;;;;;5049674;28;20029;-60
2023/03/09 11:00:58;;;;;;;5.47;4.38;;;3.90;99.90;;;;;;5048878;28;20387;-58
2023/03/09 11:03:31;;;;;;;5.70;4.50;;;3.90;99.90;;;;;;5050004;28;20028;-60
2023/03/09 11:06:23;;;;;;;6.68;4.85;;;3.90;99.90;;;;;;5049453;28;20055;-60
2023/03/09 11:09:05;;;;;;;5.88;4.25;;;3.90;99.90;;;;;;5047082;28;20092;-59
2023/03/09 11:11:31;;;;;;;5.78;4.50;;;3.90;99.90;;;;;;5049241;28;20029;-59
2023/03/09 11:13:57;;;;;;;5.07;3.92;;;3.90;99.90;;;;;;5047778;28;20028;-59
2023/03/09 11:16:28;;;;;;;6.68;5.13;;;3.90;99.90;;;;;;5048402;28;20052;-60
2023/03/09 11:19:14;;;;;;;6.30;4.40;;;3.90;99.90;;;;;;5043828;28;20044;-59
2023/03/09 11:21:54;;;;;;;4.63;3.97;;;3.80;99.90;;;;;;5047819;28;20487;-60
2023/03/09 11:24:24;;;;;;;7.20;4.57;;;3.80;99.90;;;;;;5049474;28;20021;-59
2023/03/09 11:27:23;;;;;;;9.40;5.45;;;3.90;99.90;;;;;;5046750;28;20024;-60
2023/03/09 11:30:06;;;;;;;6.00;5.15;;;3.80;99.90;;;;;;5038360;28;20082;-60
2023/03/09 11:32:32;;;;;;;5.47;4.53;;;3.80;99.90;;;;;;5038938;28;20025;-60
2023/03/09 11:34:59;;;;;;;8.38;5.22;;;3.90;99.90;;;;;;5042050;28;20480;-58
2023/03/09 11:37:52;;;;;;;6.22;4.75;;;3.90;99.90;;;;;;5049472;28;20033;-60
2023/03/09 11:40:19;;;;;;;4.57;4.07;;;4.00;99.90;;;;;;5044357;28;20044;-59
2023/03/09 11:43:03;;;;;;;7.45;4.97;;;4.10;99.90;;;;;;5048835;28;20043;-59
2023/03/09 11:45:33;;;;;;;6.68;5.15;;;4.10;99.90;;;;;;5048596;28;20029;-60
2023/03/09 11:48:20;;;;;;;7.80;5.40;;;4.20;99.90;;;;;;5048353;28;20055;-59
2023/03/09 11:51:11;;;;;;;6.05;5.32;;;4.20;99.90;;;;;;5041335;28;20087;-58
2023/03/09 11:53:51;;;;;;;4.97;4.47;;;4.20;99.90;;;;;;5049307;28;20037;-59
2023/03/09 11:56:26;;;;;;;6.00;5.20;;;4.30;99.90;;;;;;5048912;28;20547;-59
2023/03/09 11:59:14;;;;;;;6.90;4.70;;;4.30;99.90;;;;;;5046012;28;20302;-59
2023/03/09 12:01:55;;;;;;;6.72;5.00;;;4.30;99.90;;;;;;5068624;28;20040;-60
2023/03/09 12:04:21;;;;;;;6.43;5.28;;;4.40;99.90;;;;;;5045162;28;20503;-60
2023/03/09 12:07:16;;;;;;;6.35;5.05;;;4.40;99.90;;;;;;5048687;28;20104;-58
2023/03/09 12:09:55;;;;;;;6.05;4.80;;;4.40;99.90;;;;;;5046725;28;20029;-60
2023/03/09 12:12:40;;;;;;;5.82;4.78;;;4.50;99.90;;;;;;5048410;28;20084;-59
2023/03/09 12:15:33;;;;;;;7.50;4.78;;;4.60;99.90;;;;;;5043046;28;20025;-59
2023/03/09 12:18:02;;;;;;;5.50;4.75;;;4.70;99.90;;;;;;5040899;28;20386;-60
2023/03/09 12:20:34;;;;;;;6.60;5.07;;;4.70;99.90;;;;;;5047158;28;20024;-61
2023/03/09 12:23:00;;;;;;;8.65;4.75;;;4.80;99.90;;;;;;5041912;28;20497;-60
2023/03/09 12:25:28;;;;;;;6.28;5.45;;;4.70;99.90;;;;;;5048546;28;20021;-60
2023/03/09 12:28:00;;;;;;;5.22;4.60;;;4.70;99.90;;;;;;5046751;28;20033;-59
2023/03/09 12:30:33;;;;;;;9.02;5.22;;;4.70;99.90;;;;;;5047831;28;20104;-60
2023/03/09 12:33:01;;;;;;;9.02;4.90;;;4.60;99.90;;;;;;5045858;28;20029;-60
2023/03/09 12:35:26;;;;;;;5.25;4.38;;;4.60;99.90;;;;;;5047662;28;20501;-60
2023/03/09 12:38:04;;;;;;;6.65;4.97;;;4.40;99.90;;;;;;5048155;28;21319;-59
2023/03/09 12:40:33;;;;;;;6.68;4.75;;;4.40;99.90;;;;;;5046646;28;20514;-60
2023/03/09 12:43:14;;;;;;;11.27;5.18;;;4.50;99.90;;;;;;5047924;28;20021;-58
2023/03/09 12:45:43;;;;;;;7.53;5.47;;;4.60;99.90;;;;;;5048342;28;20032;-60
2023/03/09 12:48:12;;;;;;;5.55;4.82;;;4.60;99.90;;;;;;5045474;28;20438;-59
2023/03/09 12:50:47;;;;;;;7.30;4.78;;;4.40;99.90;;;;;;5044742;28;20453;-59
2023/03/09 12:53:24;;;;;;;6.85;5.05;;;4.40;99.90;;;;;;5051986;28;20032;-60
2023/03/09 12:55:53;;;;;;;8.10;4.32;;;4.50;99.90;;;;;;5051392;28;20537;-57